createdAt,value
2019-05-03T00:02:16.002Z,21.13
2019-05-03T00:12:17.434Z,18.43
2019-05-03T00:22:18.732Z,19.17
2019-05-03T00:43:17.505Z,21.00
2019-05-03T00:53:18.764Z,21.97
2019-05-03T01:03:21.907Z,23.83
2019-05-03T01:13:23.469Z,24.70
2019-05-03T01:23:24.525Z,25.23
2019-05-03T01:33:25.682Z,27.83
2019-05-03T01:43:26.948Z,28.97
2019-05-03T01:53:32.867Z,30.70
2019-05-03T02:03:38.829Z,31.27
2019-05-03T02:13:39.890Z,35.93
2019-05-03T02:23:42.586Z,38.87
2019-05-03T02:33:43.805Z,38.70
2019-05-03T02:43:49.706Z,40.10
2019-05-03T02:53:51.114Z,41.27
2019-05-03T03:03:52.411Z,40.47
2019-05-03T03:13:56.953Z,40.47
2019-05-03T03:24:11.519Z,43.00
2019-05-03T03:34:17.872Z,43.10
2019-05-03T03:44:20.026Z,44.43
2019-05-03T03:54:21.616Z,44.20
2019-05-03T04:04:25.766Z,46.90
2019-05-03T04:14:36.183Z,45.27
2019-05-03T04:24:39.923Z,48.23
2019-05-03T04:34:41.385Z,46.80
2019-05-03T04:44:45.346Z,45.27
2019-05-03T04:54:47.643Z,48.43
2019-05-03T05:04:48.901Z,47.07
2019-05-03T05:14:50.371Z,45.50
2019-05-03T05:24:51.705Z,39.67
2019-05-03T05:34:54.844Z,38.10
2019-05-03T05:44:56.136Z,36.93
2019-05-03T05:55:05.370Z,33.87
2019-05-03T06:05:06.736Z,33.50
2019-05-03T06:15:10.068Z,33.67
2019-05-03T06:25:16.742Z,33.77
2019-05-03T06:35:18.322Z,31.17
2019-05-03T06:45:19.767Z,30.67
2019-05-03T06:55:21.047Z,30.37
2019-05-03T07:05:25.128Z,31.20
2019-05-03T07:15:26.884Z,28.43
2019-05-03T07:25:28.425Z,28.70
2019-05-03T07:35:29.864Z,24.13
2019-05-03T07:45:30.992Z,23.20
2019-05-03T07:55:50.808Z,18.47
2019-05-03T08:05:52.172Z,17.90
2019-05-03T08:15:55.542Z,18.23
2019-05-03T08:25:56.940Z,18.20
2019-05-03T08:35:58.143Z,18.50
2019-05-03T08:45:59.494Z,16.50
2019-05-03T08:56:00.824Z,19.17
2019-05-03T09:06:02.055Z,17.93
2019-05-03T09:16:05.410Z,18.23
2019-05-03T09:26:06.869Z,19.23
2019-05-03T09:36:08.201Z,19.27
2019-05-03T09:46:09.458Z,16.90
2019-05-03T09:56:10.792Z,11.03
2019-05-03T10:06:14.492Z,12.03
2019-05-03T10:16:15.859Z,13.80
2019-05-03T10:26:17.230Z,15.27
2019-05-03T10:36:18.522Z,18.33
2019-05-03T10:46:19.804Z,18.07
2019-05-03T10:56:26.869Z,17.03
2019-05-03T11:06:28.143Z,15.23
2019-05-03T11:16:30.414Z,12.83
2019-05-03T11:26:32.077Z,11.47
2019-05-03T11:36:41.215Z,8.03
2019-05-03T11:46:44.450Z,9.27
2019-05-03T11:56:46.152Z,7.50
2019-05-03T12:06:47.576Z,7.90
2019-05-03T12:17:14.376Z,6.17
2019-05-03T12:26:59.172Z,7.07
2019-05-03T12:37:00.322Z,3.43
2019-05-03T12:47:02.714Z,3.07
2019-05-03T12:57:05.046Z,2.67
2019-05-03T13:07:08.511Z,3.33
2019-05-03T13:17:11.366Z,3.07
2019-05-03T13:27:14.897Z,3.20
2019-05-03T13:37:16.357Z,3.03
2019-05-03T13:47:17.737Z,3.00
2019-05-03T13:57:19.025Z,3.60
2019-05-03T14:07:20.205Z,3.27
2019-05-03T14:17:22.610Z,2.87
2019-05-03T14:27:25.418Z,3.37
2019-05-03T14:37:26.638Z,2.90
2019-05-03T14:47:27.793Z,3.27
2019-05-03T14:57:30.959Z,3.60
2019-05-03T15:07:32.210Z,4.00
2019-05-03T15:17:35.059Z,3.73
2019-05-03T15:27:36.313Z,5.17
2019-05-03T15:37:37.589Z,4.70
2019-05-03T15:47:44.405Z,4.87
2019-05-03T15:57:45.571Z,4.67
2019-05-03T16:07:47.795Z,4.83
2019-05-03T16:17:48.967Z,6.60
2019-05-03T16:27:52.222Z,6.70
2019-05-03T16:37:54.464Z,6.73
2019-05-03T16:47:56.226Z,6.10
2019-05-03T16:57:59.159Z,5.80
2019-05-03T17:08:18.860Z,6.43
2019-05-03T17:18:20.255Z,6.90
2019-05-03T17:28:21.397Z,6.63
2019-05-03T17:38:22.682Z,6.37
2019-05-03T17:48:23.885Z,7.07
2019-05-03T17:58:44.341Z,6.50
2019-05-03T18:08:47.592Z,6.43
2019-05-03T18:18:49.024Z,6.73
2019-05-03T18:28:51.246Z,7.30
2019-05-03T18:38:55.252Z,8.43
2019-05-03T18:48:58.208Z,7.83
2019-05-03T18:58:59.649Z,9.70
2019-05-03T19:09:06.247Z,7.20
2019-05-03T19:19:15.940Z,8.67
2019-05-03T19:29:17.180Z,7.57
2019-05-03T19:39:18.437Z,9.17
2019-05-03T19:49:19.843Z,8.60
2019-05-03T19:59:25.760Z,9.13
2019-05-03T20:09:27.967Z,9.97
2019-05-03T20:19:29.080Z,8.43
2019-05-03T20:29:30.142Z,9.10
2019-05-03T20:39:31.175Z,8.20
2019-05-03T20:49:34.729Z,8.57
2019-05-03T20:59:43.019Z,9.23
2019-05-03T21:09:39.039Z,9.70
2019-05-03T21:19:51.414Z,11.10
2019-05-03T21:29:55.280Z,11.10
2019-05-03T21:39:56.673Z,10.53
2019-05-03T21:49:59.549Z,11.33
2019-05-03T22:00:00.842Z,11.57
2019-05-03T22:10:04.891Z,22.17
2019-05-03T22:20:08.737Z,11.40
2019-05-03T22:30:10.569Z,10.57
2019-05-03T22:40:11.805Z,11.33
2019-05-03T22:50:14.925Z,10.90
2019-05-03T23:00:16.726Z,11.07
2019-05-03T23:10:19.999Z,11.00
2019-05-03T23:20:26.302Z,13.40
2019-05-03T23:30:27.451Z,12.07
2019-05-03T23:40:28.815Z,12.30
2019-05-03T23:50:31.684Z,11.80
